sensor_id;sensor_type;location;lat;lon;timestamp;noise_LAeq;noise_LA_min;noise_LA_max;noise_LA01;noise_LA95
70245;Laerm;57637;49.272;8.590;2023-07-08T00:00:45;46.83;40.78;57.28;;
70245;Laerm;57637;49.272;8.590;2023-07-08T00:03:16;44.97;40.45;51.76;;
70245;Laerm;57637;49.272;8.590;2023-07-08T00:05:41;45.66;40.83;54.36;;
70245;Laerm;57637;49.272;8.590;2023-07-08T00:08:12;46.94;42.91;53.49;;
70245;Laerm;57637;49.272;8.590;2023-07-08T00:10:38;45.96;41.61;56.23;;
70245;Laerm;57637;49.272;8.590;2023-07-08T00:13:04;45.83;41.11;53.45;;
70245;Laerm;57637;49.272;8.590;2023-07-08T00:15:31;44.76;40.33;56.40;;
70245;Laerm;57637;49.272;8.590;2023-07-08T00:18:00;45.23;39.55;56.91;;
70245;Laerm;57637;49.272;8.590;2023-07-08T00:20:41;45.13;40.39;54.35;;
70245;Laerm;57637;49.272;8.590;2023-07-08T00:23:09;48.78;41.40;77.36;;
70245;Laerm;57637;49.272;8.590;2023-07-08T00:25:34;47.99;41.59;72.43;;
70245;Laerm;57637;49.272;8.590;2023-07-08T00:28:00;46.21;41.52;54.17;;
70245;Laerm;57637;49.272;8.590;2023-07-08T00:30:28;45.90;41.23;53.98;;
70245;Laerm;57637;49.272;8.590;2023-07-08T00:32:54;46.14;40.67;58.46;;
70245;Laerm;57637;49.272;8.590;2023-07-08T00:35:22;46.16;42.32;54.50;;
70245;Laerm;57637;49.272;8.590;2023-07-08T00:37:50;46.67;41.67;55.26;;
70245;Laerm;57637;49.272;8.590;2023-07-08T00:40:21;46.85;42.03;55.01;;
70245;Laerm;57637;49.272;8.590;2023-07-08T00:42:48;45.56;41.29;52.54;;
70245;Laerm;57637;49.272;8.590;2023-07-08T00:45:29;46.49;41.40;60.87;;
70245;Laerm;57637;49.272;8.590;2023-07-08T00:48:00;46.66;42.15;53.21;;
70245;Laerm;57637;49.272;8.590;2023-07-08T00:50:27;46.53;42.41;55.20;;
70245;Laerm;57637;49.272;8.590;2023-07-08T00:55:47;46.25;42.32;52.79;;
70245;Laerm;57637;49.272;8.590;2023-07-08T00:58:12;47.22;42.52;56.71;;
70245;Laerm;57637;49.272;8.590;2023-07-08T01:00:37;45.72;40.33;54.20;;
70245;Laerm;57637;49.272;8.590;2023-07-08T01:03:03;45.75;40.64;51.71;;
70245;Laerm;57637;49.272;8.590;2023-07-08T01:05:29;45.53;41.77;51.18;;
70245;Laerm;57637;49.272;8.590;2023-07-08T01:07:59;46.44;41.66;52.06;;
70245;Laerm;57637;49.272;8.590;2023-07-08T01:10:53;46.98;42.42;56.62;;
70245;Laerm;57637;49.272;8.590;2023-07-08T01:13:18;45.69;40.24;53.66;;
70245;Laerm;57637;49.272;8.590;2023-07-08T01:15:45;45.71;40.92;52.24;;
70245;Laerm;57637;49.272;8.590;2023-07-08T01:18:12;46.06;41.31;68.01;;
70245;Laerm;57637;49.272;8.590;2023-07-08T01:20:41;45.53;40.79;52.05;;
70245;Laerm;57637;49.272;8.590;2023-07-08T01:23:07;45.47;41.33;57.41;;
70245;Laerm;57637;49.272;8.590;2023-07-08T01:25:33;46.54;41.38;53.48;;
70245;Laerm;57637;49.272;8.590;2023-07-08T01:27:58;45.51;41.53;54.19;;
70245;Laerm;57637;49.272;8.590;2023-07-08T01:30:25;45.53;41.18;52.13;;
70245;Laerm;57637;49.272;8.590;2023-07-08T01:32:59;45.82;40.27;56.79;;
70245;Laerm;57637;49.272;8.590;2023-07-08T01:35:27;47.94;40.73;79.03;;
70245;Laerm;57637;49.272;8.590;2023-07-08T01:37:56;45.94;40.79;55.44;;
70245;Laerm;57637;49.272;8.590;2023-07-08T01:40:29;46.06;41.17;58.82;;
70245;Laerm;57637;49.272;8.590;2023-07-08T01:42:56;46.09;41.00;53.61;;
70245;Laerm;57637;49.272;8.590;2023-07-08T01:45:22;46.36;40.89;55.83;;
70245;Laerm;57637;49.272;8.590;2023-07-08T01:47:56;45.56;40.50;57.15;;
70245;Laerm;57637;49.272;8.590;2023-07-08T01:50:24;46.12;41.37;59.33;;
70245;Laerm;57637;49.272;8.590;2023-07-08T01:52:52;45.89;41.16;55.64;;
70245;Laerm;57637;49.272;8.590;2023-07-08T01:55:23;46.41;42.30;54.90;;
70245;Laerm;57637;49.272;8.590;2023-07-08T01:57:51;45.18;40.82;52.24;;
70245;Laerm;57637;49.272;8.590;2023-07-08T02:00:16;45.08;40.80;53.00;;
70245;Laerm;57637;49.272;8.590;2023-07-08T02:02:42;47.13;40.48;61.63;;
70245;Laerm;57637;49.272;8.590;2023-07-08T02:05:07;47.10;42.97;56.26;;
70245;Laerm;57637;49.272;8.590;2023-07-08T02:07:33;47.65;42.94;56.69;;
70245;Laerm;57637;49.272;8.590;2023-07-08T02:09:58;47.75;43.21;57.61;;
70245;Laerm;57637;49.272;8.590;2023-07-08T02:12:23;46.95;41.15;54.29;;
70245;Laerm;57637;49.272;8.590;2023-07-08T02:14:49;48.12;43.45;57.14;;
70245;Laerm;57637;49.272;8.590;2023-07-08T02:17:14;46.85;41.68;53.90;;
70245;Laerm;57637;49.272;8.590;2023-07-08T02:19:42;46.31;41.74;51.01;;
70245;Laerm;57637;49.272;8.590;2023-07-08T02:22:07;46.51;41.78;54.74;;
70245;Laerm;57637;49.272;8.590;2023-07-08T02:24:33;47.06;43.06;52.90;;
70245;Laerm;57637;49.272;8.590;2023-07-08T02:26:58;46.49;42.23;54.71;;
70245;Laerm;57637;49.272;8.590;2023-07-08T02:29:23;49.50;41.30;65.14;;
70245;Laerm;57637;49.272;8.590;2023-07-08T02:31:49;51.93;42.05;66.86;;
70245;Laerm;57637;49.272;8.590;2023-07-08T02:34:14;53.02;43.71;69.53;;
70245;Laerm;57637;49.272;8.590;2023-07-08T02:36:39;54.02;43.03;68.69;;
70245;Laerm;57637;49.272;8.590;2023-07-08T02:39:05;53.99;41.91;68.85;;
70245;Laerm;57637;49.272;8.590;2023-07-08T02:41:31;54.55;43.57;69.12;;
70245;Laerm;57637;49.272;8.590;2023-07-08T02:43:56;54.21;43.34;69.62;;
70245;Laerm;57637;49.272;8.590;2023-07-08T02:46:21;53.85;44.20;69.27;;
70245;Laerm;57637;49.272;8.590;2023-07-08T02:48:47;54.01;42.23;69.72;;
70245;Laerm;57637;49.272;8.590;2023-07-08T02:51:12;54.14;42.65;70.25;;
70245;Laerm;57637;49.272;8.590;2023-07-08T02:53:37;53.07;43.21;70.12;;
70245;Laerm;57637;49.272;8.590;2023-07-08T02:56:03;50.36;43.94;62.48;;
70245;Laerm;57637;49.272;8.590;2023-07-08T02:58:28;50.19;44.12;62.71;;
70245;Laerm;57637;49.272;8.590;2023-07-08T03:00:55;48.68;44.53;53.61;;
70245;Laerm;57637;49.272;8.590;2023-07-08T03:03:24;48.26;43.29;59.24;;
70245;Laerm;57637;49.272;8.590;2023-07-08T03:06:03;47.34;42.80;53.74;;
70245;Laerm;57637;49.272;8.590;2023-07-08T03:08:30;48.41;43.71;56.29;;
70245;Laerm;57637;49.272;8.590;2023-07-08T03:11:00;48.13;43.50;53.52;;
70245;Laerm;57637;49.272;8.590;2023-07-08T03:13:26;49.36;44.47;62.77;;
70245;Laerm;57637;49.272;8.590;2023-07-08T03:15:52;47.87;43.61;57.65;;
70245;Laerm;57637;49.272;8.590;2023-07-08T03:18:17;48.11;43.36;58.82;;
70245;Laerm;57637;49.272;8.590;2023-07-08T03:20:43;49.23;43.48;60.41;;
70245;Laerm;57637;49.272;8.590;2023-07-08T03:23:10;49.90;44.17;61.16;;
70245;Laerm;57637;49.272;8.590;2023-07-08T03:25:36;49.19;43.40;58.52;;
70245;Laerm;57637;49.272;8.590;2023-07-08T03:28:03;49.74;42.97;60.23;;
70245;Laerm;57637;49.272;8.590;2023-07-08T03:30:31;51.59;44.48;65.91;;
70245;Laerm;57637;49.272;8.590;2023-07-08T03:32:57;56.16;44.64;70.35;;
70245;Laerm;57637;49.272;8.590;2023-07-08T03:35:23;55.11;45.82;70.75;;
70245;Laerm;57637;49.272;8.590;2023-07-08T03:37:48;49.82;44.47;61.96;;
70245;Laerm;57637;49.272;8.590;2023-07-08T03:40:13;51.42;43.27;70.72;;
70245;Laerm;57637;49.272;8.590;2023-07-08T03:42:39;51.07;43.61;67.27;;
70245;Laerm;57637;49.272;8.590;2023-07-08T03:45:05;53.29;42.65;73.80;;
70245;Laerm;57637;49.272;8.590;2023-07-08T03:47:30;52.47;42.71;69.12;;
70245;Laerm;57637;49.272;8.590;2023-07-08T03:49:56;53.42;43.14;70.42;;
70245;Laerm;57637;49.272;8.590;2023-07-08T03:52:21;51.47;42.76;68.67;;
70245;Laerm;57637;49.272;8.590;2023-07-08T03:54:46;49.55;42.53;63.33;;
70245;Laerm;57637;49.272;8.590;2023-07-08T03:57:12;48.24;43.83;59.71;;
70245;Laerm;57637;49.272;8.590;2023-07-08T03:59:37;52.72;44.61;71.12;;
70245;Laerm;57637;49.272;8.590;2023-07-08T04:02:03;58.09;44.46;73.89;;
70245;Laerm;57637;49.272;8.590;2023-07-08T04:04:29;55.13;44.90;73.35;;
70245;Laerm;57637;49.272;8.590;2023-07-08T04:06:54;50.34;44.60;66.95;;
70245;Laerm;57637;49.272;8.590;2023-07-08T04:09:20;48.65;44.04;56.45;;
70245;Laerm;57637;49.272;8.590;2023-07-08T04:11:46;48.47;44.36;56.39;;
70245;Laerm;57637;49.272;8.590;2023-07-08T04:14:11;50.46;44.58;63.88;;
70245;Laerm;57637;49.272;8.590;2023-07-08T04:16:48;48.93;44.01;57.53;;
70245;Laerm;57637;49.272;8.590;2023-07-08T04:19:16;49.00;43.37;62.27;;
70245;Laerm;57637;49.272;8.590;2023-07-08T04:21:43;48.34;43.33;57.56;;
70245;Laerm;57637;49.272;8.590;2023-07-08T04:24:10;48.09;42.92;65.59;;
70245;Laerm;57637;49.272;8.590;2023-07-08T04:26:36;48.52;44.26;58.23;;
70245;Laerm;57637;49.272;8.590;2023-07-08T04:29:06;48.10;43.41;58.54;;
70245;Laerm;57637;49.272;8.590;2023-07-08T04:31:31;47.90;42.81;59.05;;
70245;Laerm;57637;49.272;8.590;2023-07-08T04:33:56;47.93;43.76;56.38;;
70245;Laerm;57637;49.272;8.590;2023-07-08T04:36:22;48.22;43.26;66.10;;
70245;Laerm;57637;49.272;8.590;2023-07-08T04:38:50;54.98;43.94;75.89;;
70245;Laerm;57637;49.272;8.590;2023-07-08T04:41:15;48.64;42.15;60.50;;
70245;Laerm;57637;49.272;8.590;2023-07-08T04:43:40;48.08;43.44;60.13;;
70245;Laerm;57637;49.272;8.590;2023-07-08T04:46:17;49.11;44.04;63.65;;
70245;Laerm;57637;49.272;8.590;2023-07-08T04:48:44;49.89;43.89;64.04;;
70245;Laerm;57637;49.272;8.590;2023-07-08T04:51:10;56.17;42.85;71.72;;
70245;Laerm;57637;49.272;8.590;2023-07-08T04:53:36;58.50;43.06;71.65;;
70245;Laerm;57637;49.272;8.590;2023-07-08T04:56:01;49.42;42.18;72.32;;
70245;Laerm;57637;49.272;8.590;2023-07-08T04:58:27;49.69;42.75;66.50;;
70245;Laerm;57637;49.272;8.590;2023-07-08T05:00:52;48.82;42.56;62.69;;
70245;Laerm;57637;49.272;8.590;2023-07-08T05:03:17;48.00;42.29;63.44;;
70245;Laerm;57637;49.272;8.590;2023-07-08T05:05:43;49.03;42.84;63.96;;
70245;Laerm;57637;49.272;8.590;2023-07-08T05:08:08;48.74;43.85;62.64;;
70245;Laerm;57637;49.272;8.590;2023-07-08T05:10:34;49.17;43.00;67.04;;
70245;Laerm;57637;49.272;8.590;2023-07-08T05:12:59;48.51;42.53;69.46;;
70245;Laerm;57637;49.272;8.590;2023-07-08T05:15:25;46.86;41.88;65.77;;
70245;Laerm;57637;49.272;8.590;2023-07-08T05:17:50;47.16;42.04;62.03;;
70245;Laerm;57637;49.272;8.590;2023-07-08T05:20:16;47.15;41.81;63.89;;
70245;Laerm;57637;49.272;8.590;2023-07-08T05:22:43;46.93;42.52;59.62;;
70245;Laerm;57637;49.272;8.590;2023-07-08T05:25:09;46.71;41.25;60.34;;
70245;Laerm;57637;49.272;8.590;2023-07-08T05:27:34;48.52;43.08;72.32;;
70245;Laerm;57637;49.272;8.590;2023-07-08T05:30:01;46.87;42.04;57.70;;
70245;Laerm;57637;49.272;8.590;2023-07-08T05:32:27;46.87;41.67;62.14;;
70245;Laerm;57637;49.272;8.590;2023-07-08T05:34:53;45.78;41.16;62.36;;
70245;Laerm;57637;49.272;8.590;2023-07-08T05:37:18;48.74;40.82;62.58;;
70245;Laerm;57637;49.272;8.590;2023-07-08T05:39:46;47.00;40.25;60.86;;
70245;Laerm;57637;49.272;8.590;2023-07-08T05:42:12;45.42;36.32;64.50;;
70245;Laerm;57637;49.272;8.590;2023-07-08T05:44:37;46.32;34.69;68.89;;
70245;Laerm;57637;49.272;8.590;2023-07-08T05:47:02;44.18;33.98;62.48;;
70245;Laerm;57637;49.272;8.590;2023-07-08T05:49:28;43.93;32.96;66.99;;
70245;Laerm;57637;49.272;8.590;2023-07-08T05:51:53;46.45;34.38;59.43;;
70245;Laerm;57637;49.272;8.590;2023-07-08T05:54:19;42.95;33.42;66.81;;
70245;Laerm;57637;49.272;8.590;2023-07-08T05:56:44;47.98;33.73;73.62;;
70245;Laerm;57637;49.272;8.590;2023-07-08T05:59:09;42.07;32.35;59.36;;
70245;Laerm;57637;49.272;8.590;2023-07-08T06:01:36;41.37;32.75;58.20;;
70245;Laerm;57637;49.272;8.590;2023-07-08T06:04:01;44.39;32.63;60.01;;
70245;Laerm;57637;49.272;8.590;2023-07-08T06:06:27;45.54;33.22;62.34;;
70245;Laerm;57637;49.272;8.590;2023-07-08T06:08:53;42.08;33.83;57.71;;
70245;Laerm;57637;49.272;8.590;2023-07-08T06:11:19;42.50;34.18;57.20;;
70245;Laerm;57637;49.272;8.590;2023-07-08T06:13:45;43.61;34.71;58.55;;
70245;Laerm;57637;49.272;8.590;2023-07-08T06:16:10;48.79;37.70;66.50;;
70245;Laerm;57637;49.272;8.590;2023-07-08T06:18:36;46.78;37.93;63.57;;
70245;Laerm;57637;49.272;8.590;2023-07-08T06:21:02;46.73;37.88;63.06;;
70245;Laerm;57637;49.272;8.590;2023-07-08T06:23:28;51.76;37.80;68.15;;
70245;Laerm;57637;49.272;8.590;2023-07-08T06:25:54;46.87;35.18;71.79;;
70245;Laerm;57637;49.272;8.590;2023-07-08T06:28:20;45.26;35.23;65.69;;
70245;Laerm;57637;49.272;8.590;2023-07-08T06:30:45;44.62;34.81;64.20;;
70245;Laerm;57637;49.272;8.590;2023-07-08T06:33:11;44.12;35.13;60.01;;
70245;Laerm;57637;49.272;8.590;2023-07-08T06:35:37;42.52;34.42;56.32;;
70245;Laerm;57637;49.272;8.590;2023-07-08T06:38:03;43.88;35.23;65.55;;
70245;Laerm;57637;49.272;8.590;2023-07-08T06:40:28;43.77;35.17;58.16;;
70245;Laerm;57637;49.272;8.590;2023-07-08T06:42:54;43.64;35.19;54.50;;
70245;Laerm;57637;49.272;8.590;2023-07-08T06:45:19;42.20;34.61;58.51;;
70245;Laerm;57637;49.272;8.590;2023-07-08T06:47:44;40.38;34.44;58.37;;
70245;Laerm;57637;49.272;8.590;2023-07-08T06:50:11;40.11;33.53;52.28;;
70245;Laerm;57637;49.272;8.590;2023-07-08T06:52:37;42.13;34.25;57.28;;
70245;Laerm;57637;49.272;8.590;2023-07-08T06:55:05;44.96;34.32;60.80;;
70245;Laerm;57637;49.272;8.590;2023-07-08T06:57:31;42.52;34.37;56.03;;
70245;Laerm;57637;49.272;8.590;2023-07-08T06:59:57;43.43;34.44;63.82;;
70245;Laerm;57637;49.272;8.590;2023-07-08T07:02:23;46.62;35.53;66.02;;
70245;Laerm;57637;49.272;8.590;2023-07-08T07:04:49;46.34;37.55;66.34;;
70245;Laerm;57637;49.272;8.590;2023-07-08T07:07:14;46.68;37.80;62.98;;
70245;Laerm;57637;49.272;8.590;2023-07-08T07:09:39;43.97;35.72;61.41;;
70245;Laerm;57637;49.272;8.590;2023-07-08T07:12:06;47.24;37.80;64.21;;
70245;Laerm;57637;49.272;8.590;2023-07-08T07:14:32;47.70;37.34;62.63;;
70245;Laerm;57637;49.272;8.590;2023-07-08T07:16:58;45.53;37.34;59.66;;
70245;Laerm;57637;49.272;8.590;2023-07-08T07:19:23;47.90;36.61;66.91;;
70245;Laerm;57637;49.272;8.590;2023-07-08T07:21:49;46.48;36.24;65.02;;
70245;Laerm;57637;49.272;8.590;2023-07-08T07:24:14;46.08;36.21;66.36;;
70245;Laerm;57637;49.272;8.590;2023-07-08T07:26:40;47.18;38.23;73.81;;
70245;Laerm;57637;49.272;8.590;2023-07-08T07:29:05;46.77;37.45;59.88;;
70245;Laerm;57637;49.272;8.590;2023-07-08T07:31:31;43.77;34.88;59.44;;
70245;Laerm;57637;49.272;8.590;2023-07-08T07:33:59;46.82;36.55;65.47;;
70245;Laerm;57637;49.272;8.590;2023-07-08T07:36:24;49.81;36.64;69.48;;
70245;Laerm;57637;49.272;8.590;2023-07-08T07:38:50;47.08;35.91;68.06;;
70245;Laerm;57637;49.272;8.590;2023-07-08T07:41:16;48.51;35.85;73.11;;
70245;Laerm;57637;49.272;8.590;2023-07-08T07:43:41;53.83;35.82;76.01;;
70245;Laerm;57637;49.272;8.590;2023-07-08T07:46:06;53.65;34.77;86.43;;
70245;Laerm;57637;49.272;8.590;2023-07-08T07:48:33;46.05;34.85;66.85;;
70245;Laerm;57637;49.272;8.590;2023-07-08T07:50:59;46.68;36.38;62.49;;
70245;Laerm;57637;49.272;8.590;2023-07-08T07:53:25;52.66;37.84;76.81;;
70245;Laerm;57637;49.272;8.590;2023-07-08T07:55:58;47.76;36.24;65.69;;
70245;Laerm;57637;49.272;8.590;2023-07-08T07:58:23;51.36;35.96;67.07;;
70245;Laerm;57637;49.272;8.590;2023-07-08T08:00:49;42.90;34.42;60.40;;
70245;Laerm;57637;49.272;8.590;2023-07-08T08:03:15;42.99;34.61;58.50;;
70245;Laerm;57637;49.272;8.590;2023-07-08T08:05:42;43.66;34.14;59.09;;
70245;Laerm;57637;49.272;8.590;2023-07-08T08:08:07;43.49;35.56;64.66;;
70245;Laerm;57637;49.272;8.590;2023-07-08T08:10:32;54.05;36.10;67.42;;
70245;Laerm;57637;49.272;8.590;2023-07-08T08:12:58;41.74;34.66;56.09;;
70245;Laerm;57637;49.272;8.590;2023-07-08T08:15:24;45.84;34.74;63.92;;
70245;Laerm;57637;49.272;8.590;2023-07-08T08:17:49;44.26;35.65;55.11;;
70245;Laerm;57637;49.272;8.590;2023-07-08T08:20:21;48.62;34.20;67.26;;
70245;Laerm;57637;49.272;8.590;2023-07-08T08:22:47;49.42;36.56;63.57;;
70245;Laerm;57637;49.272;8.590;2023-07-08T08:25:14;47.54;36.26;66.12;;
70245;Laerm;57637;49.272;8.590;2023-07-08T08:27:40;50.63;36.55;66.64;;
70245;Laerm;57637;49.272;8.590;2023-07-08T08:30:06;43.68;35.23;54.47;;
70245;Laerm;57637;49.272;8.590;2023-07-08T08:32:32;43.94;34.20;55.45;;
70245;Laerm;57637;49.272;8.590;2023-07-08T08:34:57;50.12;35.89;63.88;;
70245;Laerm;57637;49.272;8.590;2023-07-08T08:37:23;43.82;35.44;58.37;;
70245;Laerm;57637;49.272;8.590;2023-07-08T08:39:48;48.86;34.28;68.97;;
70245;Laerm;57637;49.272;8.590;2023-07-08T08:42:25;39.71;34.07;50.71;;
70245;Laerm;57637;49.272;8.590;2023-07-08T08:44:51;44.24;34.17;64.20;;
70245;Laerm;57637;49.272;8.590;2023-07-08T08:47:22;50.84;34.16;71.27;;
70245;Laerm;57637;49.272;8.590;2023-07-08T08:49:57;50.46;34.03;69.73;;
70245;Laerm;57637;49.272;8.590;2023-07-08T08:52:25;45.28;34.92;62.56;;
70245;Laerm;57637;49.272;8.590;2023-07-08T08:54:50;45.99;38.06;65.73;;
70245;Laerm;57637;49.272;8.590;2023-07-08T08:59:55;43.79;35.31;63.80;;
70245;Laerm;57637;49.272;8.590;2023-07-08T09:04:58;45.69;34.36;66.95;;
70245;Laerm;57637;49.272;8.590;2023-07-08T09:07:28;47.64;34.88;69.50;;
70245;Laerm;57637;49.272;8.590;2023-07-08T09:10:08;48.00;36.02;63.90;;
70245;Laerm;57637;49.272;8.590;2023-07-08T09:12:35;48.25;35.61;66.00;;
70245;Laerm;57637;49.272;8.590;2023-07-08T09:15:12;49.83;36.08;66.23;;
70245;Laerm;57637;49.272;8.590;2023-07-08T09:17:38;48.13;36.58;68.41;;
70245;Laerm;57637;49.272;8.590;2023-07-08T09:25:31;49.34;35.78;67.91;;
70245;Laerm;57637;49.272;8.590;2023-07-08T09:27:58;46.99;35.10;64.19;;
70245;Laerm;57637;49.272;8.590;2023-07-08T09:30:24;45.50;33.44;60.87;;
70245;Laerm;57637;49.272;8.590;2023-07-08T09:32:56;47.39;34.27;62.86;;
70245;Laerm;57637;49.272;8.590;2023-07-08T09:35:24;42.48;33.20;56.40;;
70245;Laerm;57637;49.272;8.590;2023-07-08T09:37:50;44.35;33.71;62.44;;
70245;Laerm;57637;49.272;8.590;2023-07-08T09:40:28;43.49;34.71;62.95;;
70245;Laerm;57637;49.272;8.590;2023-07-08T09:43:20;45.32;35.60;64.56;;
70245;Laerm;57637;49.272;8.590;2023-07-08T09:45:46;45.76;34.17;61.50;;
70245;Laerm;57637;49.272;8.590;2023-07-08T09:48:23;45.31;33.36;58.62;;
70245;Laerm;57637;49.272;8.590;2023-07-08T09:50:52;46.31;33.58;59.26;;
70245;Laerm;57637;49.272;8.590;2023-07-08T09:53:17;44.53;34.01;62.74;;
70245;Laerm;57637;49.272;8.590;2023-07-08T09:55:44;52.43;34.86;68.59;;
70245;Laerm;57637;49.272;8.590;2023-07-08T09:58:15;47.58;33.71;65.29;;
70245;Laerm;57637;49.272;8.590;2023-07-08T10:00:43;48.33;35.09;68.61;;
70245;Laerm;57637;49.272;8.590;2023-07-08T10:03:19;49.02;35.80;65.19;;
70245;Laerm;57637;49.272;8.590;2023-07-08T10:05:47;49.73;37.72;61.06;;
70245;Laerm;57637;49.272;8.590;2023-07-08T10:08:19;50.20;35.40;67.50;;
70245;Laerm;57637;49.272;8.590;2023-07-08T10:10:54;46.32;35.67;64.66;;
70245;Laerm;57637;49.272;8.590;2023-07-08T10:13:26;45.93;35.17;63.24;;
70245;Laerm;57637;49.272;8.590;2023-07-08T10:16:10;47.34;35.70;62.53;;
70245;Laerm;57637;49.272;8.590;2023-07-08T10:18:37;48.13;34.60;74.04;;
70245;Laerm;57637;49.272;8.590;2023-07-08T10:21:22;45.74;33.67;60.33;;
70245;Laerm;57637;49.272;8.590;2023-07-08T10:26:36;44.24;32.55;65.52;;
70245;Laerm;57637;49.272;8.590;2023-07-08T10:34:26;44.17;34.67;57.09;;
70245;Laerm;57637;49.272;8.590;2023-07-08T10:37:25;48.53;32.95;68.98;;
70245;Laerm;57637;49.272;8.590;2023-07-08T10:42:43;51.89;40.88;71.09;;
70245;Laerm;57637;49.272;8.590;2023-07-08T10:45:20;45.20;41.07;58.26;;
70245;Laerm;57637;49.272;8.590;2023-07-08T10:48:12;55.14;41.25;83.41;;
70245;Laerm;57637;49.272;8.590;2023-07-08T10:53:35;55.09;35.53;80.30;;
70245;Laerm;57637;49.272;8.590;2023-07-08T11:09:17;47.53;35.15;64.53;;
70245;Laerm;57637;49.272;8.590;2023-07-08T11:11:55;48.66;35.51;63.63;;
70245;Laerm;57637;49.272;8.590;2023-07-08T11:14:49;51.91;34.75;77.24;;
70245;Laerm;57637;49.272;8.590;2023-07-08T11:17:23;46.10;36.08;60.36;;
70245;Laerm;57637;49.272;8.590;2023-07-08T11:20:32;45.64;36.28;62.54;;
70245;Laerm;57637;49.272;8.590;2023-07-08T11:23:04;45.21;37.17;65.62;;
70245;Laerm;57637;49.272;8.590;2023-07-08T11:25:34;44.87;37.04;59.86;;
70245;Laerm;57637;49.272;8.590;2023-07-08T11:28:04;45.71;36.20;62.29;;
70245;Laerm;57637;49.272;8.590;2023-07-08T11:30:32;44.74;35.66;58.80;;
70245;Laerm;57637;49.272;8.590;2023-07-08T11:33:09;47.50;36.52;63.66;;
70245;Laerm;57637;49.272;8.590;2023-07-08T11:35:46;48.12;34.52;63.66;;
70245;Laerm;57637;49.272;8.590;2023-07-08T11:38:15;46.95;34.35;62.21;;
70245;Laerm;57637;49.272;8.590;2023-07-08T11:41:05;44.79;33.03;59.19;;
70245;Laerm;57637;49.272;8.590;2023-07-08T11:43:52;48.19;33.11;66.56;;
70245;Laerm;57637;49.272;8.590;2023-07-08T11:46:21;44.75;35.31;62.19;;
70245;Laerm;57637;49.272;8.590;2023-07-08T11:48:52;45.15;34.94;59.68;;
70245;Laerm;57637;49.272;8.590;2023-07-08T11:51:27;42.08;33.81;56.57;;
70245;Laerm;57637;49.272;8.590;2023-07-08T11:54:06;43.48;33.08;60.63;;
70245;Laerm;57637;49.272;8.590;2023-07-08T11:59:24;42.18;33.61;57.49;;
70245;Laerm;57637;49.272;8.590;2023-07-08T12:06:46;44.07;33.99;61.67;;
70245;Laerm;57637;49.272;8.590;2023-07-08T12:09:15;46.28;34.86;60.43;;
70245;Laerm;57637;49.272;8.590;2023-07-08T12:11:47;44.05;34.28;63.98;;
70245;Laerm;57637;49.272;8.590;2023-07-08T12:14:12;42.16;33.16;60.29;;
70245;Laerm;57637;49.272;8.590;2023-07-08T12:16:39;43.51;34.44;59.57;;
70245;Laerm;57637;49.272;8.590;2023-07-08T12:19:11;45.48;33.15;62.86;;
70245;Laerm;57637;49.272;8.590;2023-07-08T12:21:38;42.65;34.38;57.77;;
70245;Laerm;57637;49.272;8.590;2023-07-08T12:24:06;43.54;33.88;62.44;;
70245;Laerm;57637;49.272;8.590;2023-07-08T12:26:33;44.38;33.34;62.56;;
70245;Laerm;57637;49.272;8.590;2023-07-08T12:28:59;47.75;34.40;69.18;;
70245;Laerm;57637;49.272;8.590;2023-07-08T12:31:24;44.53;33.77;59.89;;
70245;Laerm;57637;49.272;8.590;2023-07-08T12:33:51;45.99;34.35;63.26;;
70245;Laerm;57637;49.272;8.590;2023-07-08T12:36:22;45.73;34.02;62.26;;
70245;Laerm;57637;49.272;8.590;2023-07-08T12:38:50;45.22;32.76;64.74;;
70245;Laerm;57637;49.272;8.590;2023-07-08T12:43:43;48.26;35.33;63.83;;
70245;Laerm;57637;49.272;8.590;2023-07-08T12:46:12;46.58;32.89;63.56;;
70245;Laerm;57637;49.272;8.590;2023-07-08T12:48:39;42.24;32.28;58.11;;
70245;Laerm;57637;49.272;8.590;2023-07-08T12:51:09;46.22;34.03;61.17;;
70245;Laerm;57637;49.272;8.590;2023-07-08T12:53:36;46.69;33.67;60.60;;
70245;Laerm;57637;49.272;8.590;2023-07-08T12:56:02;48.70;32.92;66.68;;
70245;Laerm;57637;49.272;8.590;2023-07-08T12:58:31;47.69;33.78;62.16;;
70245;Laerm;57637;49.272;8.590;2023-07-08T13:01:00;47.68;34.09;67.30;;
70245;Laerm;57637;49.272;8.590;2023-07-08T13:03:29;46.27;33.89;64.87;;
70245;Laerm;57637;49.272;8.590;2023-07-08T13:05:57;46.31;32.40;65.14;;
70245;Laerm;57637;49.272;8.590;2023-07-08T13:08:27;44.01;32.07;62.69;;
70245;Laerm;57637;49.272;8.590;2023-07-08T13:10:58;47.06;32.63;62.81;;
70245;Laerm;57637;49.272;8.590;2023-07-08T13:13:27;45.80;33.35;62.71;;
70245;Laerm;57637;49.272;8.590;2023-07-08T13:15:53;43.58;32.89;60.00;;
70245;Laerm;57637;49.272;8.590;2023-07-08T13:18:24;47.45;32.89;65.60;;
70245;Laerm;57637;49.272;8.590;2023-07-08T13:20:53;45.07;32.93;63.21;;
70245;Laerm;57637;49.272;8.590;2023-07-08T13:23:19;44.50;33.83;61.60;;
70245;Laerm;57637;49.272;8.590;2023-07-08T13:25:48;47.99;33.13;73.04;;
70245;Laerm;57637;49.272;8.590;2023-07-08T13:30:58;48.72;34.28;59.05;;
70245;Laerm;57637;49.272;8.590;2023-07-08T13:33:29;44.95;38.45;63.33;;
70245;Laerm;57637;49.272;8.590;2023-07-08T13:35:55;44.04;36.61;60.04;;
70245;Laerm;57637;49.272;8.590;2023-07-08T13:38:24;46.51;38.87;67.94;;
70245;Laerm;57637;49.272;8.590;2023-07-08T13:41:00;46.29;41.29;63.20;;
70245;Laerm;57637;49.272;8.590;2023-07-08T13:43:32;48.28;41.35;67.78;;
70245;Laerm;57637;49.272;8.590;2023-07-08T13:45:58;47.88;42.46;61.33;;
70245;Laerm;57637;49.272;8.590;2023-07-08T13:48:35;46.94;34.91;59.39;;
70245;Laerm;57637;49.272;8.590;2023-07-08T13:51:07;47.74;33.13;79.60;;
70245;Laerm;57637;49.272;8.590;2023-07-08T13:56:31;49.05;41.88;62.91;;
70245;Laerm;57637;49.272;8.590;2023-07-08T13:59:02;48.14;41.87;59.99;;
70245;Laerm;57637;49.272;8.590;2023-07-08T14:01:30;47.85;43.90;57.33;;
70245;Laerm;57637;49.272;8.590;2023-07-08T14:03:56;48.81;40.75;61.80;;
70245;Laerm;57637;49.272;8.590;2023-07-08T14:06:32;47.51;42.64;59.15;;
70245;Laerm;57637;49.272;8.590;2023-07-08T14:11:44;46.86;35.66;56.91;;
70245;Laerm;57637;49.272;8.590;2023-07-08T14:14:10;46.34;36.13;59.81;;
70245;Laerm;57637;49.272;8.590;2023-07-08T14:16:47;45.34;36.64;58.48;;
70245;Laerm;57637;49.272;8.590;2023-07-08T14:19:32;45.63;35.15;61.11;;
70245;Laerm;57637;49.272;8.590;2023-07-08T14:24:42;45.74;36.16;59.49;;
70245;Laerm;57637;49.272;8.590;2023-07-08T14:27:10;46.60;37.31;58.76;;
70245;Laerm;57637;49.272;8.590;2023-07-08T14:29:40;49.43;38.80;64.20;;
70245;Laerm;57637;49.272;8.590;2023-07-08T14:32:12;47.97;41.26;74.16;;
70245;Laerm;57637;49.272;8.590;2023-07-08T14:34:40;45.95;41.01;57.49;;
70245;Laerm;57637;49.272;8.590;2023-07-08T14:37:14;44.86;39.83;55.71;;
70245;Laerm;57637;49.272;8.590;2023-07-08T14:39:40;43.99;40.10;50.84;;
70245;Laerm;57637;49.272;8.590;2023-07-08T14:42:10;45.08;40.35;56.43;;
70245;Laerm;57637;49.272;8.590;2023-07-08T14:44:36;47.58;40.64;66.41;;
70245;Laerm;57637;49.272;8.590;2023-07-08T14:47:04;45.48;41.40;55.24;;
70245;Laerm;57637;49.272;8.590;2023-07-08T14:49:29;47.14;42.55;59.23;;
70245;Laerm;57637;49.272;8.590;2023-07-08T14:51:55;46.76;42.57;58.67;;